Terminal Aerodrome Forecast
Issued by NWS

Home | Current Version | Previous Version | Text Only | Print | Product List | Glossary Off
Versions: 1 2 3 4 5 6 7 8 9 10 11 12 13 14 15 16 17

000
FTUS43 KICT 301421 AAA
TAFHUT
TAF AMD
KHUT 301421Z 3014/3112 02004KT 3SM BR OVC005
     FM301630 10005KT P6SM OVC015
     FM302000 12007KT P6SM BKN025=

USA.gov is the U.S. government's official web portal to all federal, state and local government web resources and services.